Ashcroft, Canada
Current Conditions -  °F | °C
As of 5:00 AM on Friday 19 Dec 2014 (Local Time) from CYKA Reporting Station
Overcast Overcast  
Wind Chill: 31°   Ceiling: 6800
Heat Index: 39°   Visibility: 30mi
Dew Point: 34°   Wind: 15mph
Humidity: 81%   Direction: 110°ESE
Pressure: 29.74"   Gusts: NA
Location:  50.72°N, 121.27°W
Report Text: CYKA 191300Z 11013KT 30SM FEW030 BKN068 OVC120 04/01 A2974 RMK SC2AC4AC2 SLP085
Loading
Personal Weather Stations






























Interactive Weather Map New forecast layout! Learn more

10-Day Weather Forecast

Advertisements
Track Severe Weather on mobile